createdAt,value
2019-04-03T00:31:15.948Z,99399.33
2019-04-03T00:35:23.130Z,99394.71
2019-04-03T00:39:39.857Z,99406.43
2019-04-03T00:43:44.913Z,99407.84
2019-04-03T00:47:50.620Z,99404.16
2019-04-03T00:51:57.675Z,99404.16
2019-04-03T01:05:08.657Z,99412.71
2019-04-03T01:09:13.903Z,99413.40
2019-04-03T01:13:19.207Z,99415.81
2019-04-03T01:17:24.631Z,99417.23
2019-04-03T01:21:29.722Z,99417.33
2019-04-03T01:25:35.056Z,99422.05
2019-04-03T01:29:42.238Z,99418.21
2019-04-03T01:38:52.599Z,99405.34
2019-04-03T01:42:57.747Z,99396.84
2019-04-03T01:47:02.953Z,99397.75
2019-04-03T01:51:08.196Z,99390.02
2019-04-03T01:55:13.340Z,99387.70
2019-04-03T01:59:18.409Z,99382.89
2019-04-03T02:03:24.046Z,99379.83
2019-04-03T02:07:29.568Z,99371.39
2019-04-03T02:11:34.737Z,99376.84
2019-04-03T02:15:39.943Z,99384.60
2019-04-03T02:19:45.193Z,99365.51
2019-04-03T02:24:09.561Z,99364.43
2019-04-03T02:28:16.528Z,99378.17
2019-04-03T02:32:24.130Z,99369.20
2019-04-03T02:36:28.499Z,99376.23
2019-04-03T02:40:34.289Z,99376.13
2019-04-03T02:44:39.612Z,99369.64
2019-04-03T02:48:44.748Z,99373.91
2019-04-03T02:52:50.175Z,99362.81
2019-04-03T02:56:55.764Z,99365.84
2019-04-03T03:01:05.250Z,99369.37
2019-04-03T03:05:15.005Z,99376.86
2019-04-03T03:09:20.215Z,99370.22
2019-04-03T03:13:25.526Z,99368.60
2019-04-03T03:22:08.185Z,99363.22
2019-04-03T03:26:13.589Z,99361.58
2019-04-03T03:30:36.263Z,99357.48
2019-04-03T03:34:55.965Z,99369.44
2019-04-03T03:43:38.321Z,99368.50
2019-04-03T03:48:43.640Z,99369.41
2019-04-03T03:53:18.137Z,99363.45
2019-04-03T03:57:23.919Z,99368.77
2019-04-03T04:01:31.487Z,99360.91
2019-04-03T04:05:41.794Z,99355.86
2019-04-03T04:09:49.593Z,99346.64
2019-04-03T04:14:13.401Z,99345.44
2019-04-03T04:18:30.074Z,99333.84
2019-04-03T04:22:35.292Z,99329.45
2019-04-03T04:27:03.197Z,99336.11
2019-04-03T04:31:13.624Z,99335.31
2019-04-03T04:35:20.647Z,99329.39
2019-04-03T04:39:34.844Z,99326.57
2019-04-03T04:43:40.021Z,99329.41
2019-04-03T04:47:46.468Z,99327.94
2019-04-03T04:52:11.468Z,99328.59
2019-04-03T04:56:16.663Z,99328.40
2019-04-03T05:00:21.917Z,99334.16
2019-04-03T05:04:27.141Z,99331.73
2019-04-03T05:08:33.554Z,99327.50
2019-04-03T05:12:58.547Z,99329.69
2019-04-03T05:17:03.692Z,99337.67
2019-04-03T05:21:08.916Z,99335.97
2019-04-03T05:25:14.177Z,99336.59
2019-04-03T05:29:19.651Z,99342.56
2019-04-03T05:33:24.783Z,99337.61
2019-04-03T05:37:30.598Z,99337.23
2019-04-03T05:41:36.126Z,99347.83
2019-04-03T05:45:42.246Z,99355.41
2019-04-03T05:49:56.108Z,99350.27
2019-04-03T05:54:07.999Z,99352.49
2019-04-03T05:58:19.004Z,99353.53
2019-04-03T06:02:24.230Z,99359.13
2019-04-03T06:06:29.391Z,99360.34
2019-04-03T06:10:37.453Z,99362.80
2019-04-03T06:14:49.602Z,99365.57
2019-04-03T06:19:00.771Z,99362.02
2019-04-03T06:23:05.843Z,99358.47
2019-04-03T06:27:11.548Z,99351.39
2019-04-03T06:31:16.756Z,99350.80
2019-04-03T06:35:21.994Z,99346.43
2019-04-03T06:39:30.441Z,99341.62
2019-04-03T06:43:43.576Z,99357.08
2019-04-03T06:47:48.703Z,99361.19
2019-04-03T06:56:12.497Z,99358.49
2019-04-03T07:00:17.948Z,99358.64
2019-04-03T07:05:03.425Z,99350.42
2019-04-03T07:09:21.754Z,99353.16
2019-04-03T07:13:35.673Z,99349.38
2019-04-03T07:17:41.413Z,99347.63
2019-04-03T07:21:46.822Z,99346.23
2019-04-03T07:25:52.232Z,99338.01
2019-04-03T07:29:57.390Z,99344.34
2019-04-03T07:34:04.197Z,99334.14
2019-04-03T07:38:09.314Z,99337.50
2019-04-03T07:42:15.036Z,99344.64
2019-04-03T07:46:40.005Z,99350.58
2019-04-03T07:50:45.227Z,99332.16
2019-04-03T07:54:52.913Z,99339.75
2019-04-03T07:59:17.987Z,99355.38
2019-04-03T08:03:23.279Z,99342.22
2019-04-03T08:07:28.731Z,99347.33
2019-04-03T08:11:33.907Z,99361.86
2019-04-03T08:15:46.675Z,99376.13
2019-04-03T08:19:53.674Z,99378.91
2019-04-03T08:24:07.420Z,99365.70
2019-04-03T08:28:17.118Z,99359.88
2019-04-03T08:32:24.217Z,99358.30
2019-04-03T08:36:38.756Z,99357.36
2019-04-03T08:40:53.175Z,99358.39
2019-04-03T08:44:58.272Z,99362.09
2019-04-03T08:49:03.826Z,99360.41
2019-04-03T08:53:15.780Z,99350.48
2019-04-03T17:50:07.501Z,99103.61
2019-04-03T19:59:36.791Z,99173.22
2019-04-03T22:11:15.107Z,99127.27
2019-04-03T22:15:20.527Z,99148.16
2019-04-03T22:20:13.062Z,99153.52
2019-04-03T23:52:34.792Z,99086.89
